Leimuiden, Netherlands
Current Conditions -  °F | °C
As of 4:55 AM on Friday 31 Oct 2014 (Local Time) from EHAM Reporting Station
Haze Haze  
Wind Chill: 52°   Ceiling: Unl
Heat Index: 52°   Visibility: 1.7mi
Dew Point: 52°   Wind: 8mph
Humidity: 100%   Direction: 170°S
Pressure: 30.12"   Gusts: NA
Location:  52.22°N, 4.67°E
Report Text: EHAM 310355Z 17007KT 2800 BR NSC 11/11 Q1020 NOSIG
Loading
Personal Weather Stations






























Interactive Weather Map
Tropical Storm Tracking
New forecast layout! Learn more

10-Day Weather Forecast

Advertisements
Track Severe Weather on mobile